sensor_id;sensor_type;location;lat;lon;timestamp;temperature;humidity
17994;DHT22;9122;48.406;9.984;2023-09-12T00:02:42;23.10;78.90
17994;DHT22;9122;48.406;9.984;2023-09-12T00:05:26;23.00;79.10
17994;DHT22;9122;48.406;9.984;2023-09-12T00:08:10;23.00;97.90
17994;DHT22;9122;48.406;9.984;2023-09-12T00:10:59;23.00;79.70
17994;DHT22;9122;48.406;9.984;2023-09-12T00:13:44;22.90;98.00
17994;DHT22;9122;48.406;9.984;2023-09-12T00:16:28;22.90;80.20
17994;DHT22;9122;48.406;9.984;2023-09-12T00:19:13;22.90;80.10
17994;DHT22;9122;48.406;9.984;2023-09-12T00:21:58;22.90;80.50
17994;DHT22;9122;48.406;9.984;2023-09-12T00:24:43;22.80;80.60
17994;DHT22;9122;48.406;9.984;2023-09-12T00:27:27;22.60;99.90
17994;DHT22;9122;48.406;9.984;2023-09-12T00:30:13;22.50;99.80
17994;DHT22;9122;48.406;9.984;2023-09-12T00:32:58;22.80;99.90
17994;DHT22;9122;48.406;9.984;2023-09-12T00:35:43;22.80;83.50
17994;DHT22;9122;48.406;9.984;2023-09-12T00:38:29;22.70;86.60
17994;DHT22;9122;48.406;9.984;2023-09-12T00:41:14;22.70;87.30
17994;DHT22;9122;48.406;9.984;2023-09-12T00:43:58;22.80;83.80
17994;DHT22;9122;48.406;9.984;2023-09-12T00:46:43;22.60;83.80
17994;DHT22;9122;48.406;9.984;2023-09-12T00:49:29;22.60;87.00
17994;DHT22;9122;48.406;9.984;2023-09-12T00:52:14;22.50;87.40
17994;DHT22;9122;48.406;9.984;2023-09-12T00:54:59;22.40;86.80
17994;DHT22;9122;48.406;9.984;2023-09-12T00:57:44;22.40;86.30
17994;DHT22;9122;48.406;9.984;2023-09-12T01:00:29;22.40;99.90
17994;DHT22;9122;48.406;9.984;2023-09-12T01:03:13;22.30;85.00
17994;DHT22;9122;48.406;9.984;2023-09-12T01:05:58;22.20;85.40
17994;DHT22;9122;48.406;9.984;2023-09-12T01:08:43;22.20;88.30
17994;DHT22;9122;48.406;9.984;2023-09-12T01:11:28;22.30;85.60
17994;DHT22;9122;48.406;9.984;2023-09-12T01:14:12;22.20;86.00
17994;DHT22;9122;48.406;9.984;2023-09-12T01:16:58;22.00;99.90
17994;DHT22;9122;48.406;9.984;2023-09-12T01:19:42;22.20;88.40
17994;DHT22;9122;48.406;9.984;2023-09-12T01:28:51;22.00;83.80
17994;DHT22;9122;48.406;9.984;2023-09-12T01:31:38;21.90;99.90
17994;DHT22;9122;48.406;9.984;2023-09-12T01:34:24;21.90;89.90
17994;DHT22;9122;48.406;9.984;2023-09-12T01:37:08;21.70;99.90
17994;DHT22;9122;48.406;9.984;2023-09-12T01:39:52;21.80;87.00
17994;DHT22;9122;48.406;9.984;2023-09-12T01:42:38;21.80;88.10
17994;DHT22;9122;48.406;9.984;2023-09-12T01:45:25;21.70;90.50
17994;DHT22;9122;48.406;9.984;2023-09-12T01:48:11;21.60;90.20
17994;DHT22;9122;48.406;9.984;2023-09-12T01:50:56;21.60;99.90
17994;DHT22;9122;48.406;9.984;2023-09-12T01:53:43;21.50;90.70
17994;DHT22;9122;48.406;9.984;2023-09-12T01:56:30;21.50;99.90
17994;DHT22;9122;48.406;9.984;2023-09-12T01:59:14;21.50;90.50
17994;DHT22;9122;48.406;9.984;2023-09-12T02:01:59;21.50;99.90
17994;DHT22;9122;48.406;9.984;2023-09-12T02:05:10;21.40;89.70
17994;DHT22;9122;48.406;9.984;2023-09-12T02:07:55;21.40;91.00
17994;DHT22;9122;48.406;9.984;2023-09-12T02:10:40;21.50;99.90
17994;DHT22;9122;48.406;9.984;2023-09-12T02:13:24;21.30;99.90
17994;DHT22;9122;48.406;9.984;2023-09-12T02:16:08;21.00;99.90
17994;DHT22;9122;48.406;9.984;2023-09-12T02:18:52;21.10;99.90
17994;DHT22;9122;48.406;9.984;2023-09-12T02:21:36;21.10;99.90
17994;DHT22;9122;48.406;9.984;2023-09-12T02:24:21;21.10;99.90
17994;DHT22;9122;48.406;9.984;2023-09-12T02:27:05;20.90;99.90
17994;DHT22;9122;48.406;9.984;2023-09-12T02:29:50;21.10;90.10
17994;DHT22;9122;48.406;9.984;2023-09-12T02:35:19;20.90;99.90
17994;DHT22;9122;48.406;9.984;2023-09-12T02:38:03;20.80;99.90
17994;DHT22;9122;48.406;9.984;2023-09-12T02:40:48;20.90;99.90
17994;DHT22;9122;48.406;9.984;2023-09-12T02:43:32;20.90;99.90
17994;DHT22;9122;48.406;9.984;2023-09-12T02:46:16;20.80;99.90
17994;DHT22;9122;48.406;9.984;2023-09-12T02:49:01;20.80;91.00
17994;DHT22;9122;48.406;9.984;2023-09-12T02:51:45;20.70;99.90
17994;DHT22;9122;48.406;9.984;2023-09-12T02:54:29;20.70;99.90
17994;DHT22;9122;48.406;9.984;2023-09-12T02:57:14;20.70;99.90
17994;DHT22;9122;48.406;9.984;2023-09-12T02:59:58;21.00;91.10
17994;DHT22;9122;48.406;9.984;2023-09-12T03:02:46;20.70;92.60
17994;DHT22;9122;48.406;9.984;2023-09-12T03:05:31;20.70;99.90
17994;DHT22;9122;48.406;9.984;2023-09-12T03:08:15;20.60;99.90
17994;DHT22;9122;48.406;9.984;2023-09-12T03:10:59;20.70;90.70
17994;DHT22;9122;48.406;9.984;2023-09-12T03:13:45;20.60;92.00
17994;DHT22;9122;48.406;9.984;2023-09-12T03:16:31;20.60;99.90
17994;DHT22;9122;48.406;9.984;2023-09-12T03:19:15;20.50;99.90
17994;DHT22;9122;48.406;9.984;2023-09-12T03:22:00;20.40;99.90
17994;DHT22;9122;48.406;9.984;2023-09-12T03:24:45;20.30;99.90
17994;DHT22;9122;48.406;9.984;2023-09-12T03:27:29;20.40;99.90
17994;DHT22;9122;48.406;9.984;2023-09-12T03:30:14;20.40;99.90
17994;DHT22;9122;48.406;9.984;2023-09-12T03:33:01;20.30;99.90
17994;DHT22;9122;48.406;9.984;2023-09-12T03:35:46;20.30;99.90
17994;DHT22;9122;48.406;9.984;2023-09-12T03:38:30;20.10;99.90
17994;DHT22;9122;48.406;9.984;2023-09-12T03:44:02;20.10;99.90
17994;DHT22;9122;48.406;9.984;2023-09-12T03:46:46;20.10;99.90
17994;DHT22;9122;48.406;9.984;2023-09-12T03:49:31;20.00;99.90
17994;DHT22;9122;48.406;9.984;2023-09-12T03:52:16;20.10;94.80
17994;DHT22;9122;48.406;9.984;2023-09-12T03:55:00;20.10;99.90
17994;DHT22;9122;48.406;9.984;2023-09-12T03:57:45;20.00;99.90
17994;DHT22;9122;48.406;9.984;2023-09-12T04:00:29;20.10;99.90
17994;DHT22;9122;48.406;9.984;2023-09-12T04:03:13;19.70;99.90
17994;DHT22;9122;48.406;9.984;2023-09-12T04:08:41;20.00;99.90
17994;DHT22;9122;48.406;9.984;2023-09-12T04:11:25;19.90;99.90
17994;DHT22;9122;48.406;9.984;2023-09-12T04:14:10;19.90;99.90
17994;DHT22;9122;48.406;9.984;2023-09-12T04:16:54;19.80;99.90
17994;DHT22;9122;48.406;9.984;2023-09-12T04:19:38;19.70;99.90
17994;DHT22;9122;48.406;9.984;2023-09-12T04:22:22;19.80;99.90
17994;DHT22;9122;48.406;9.984;2023-09-12T04:25:07;19.80;99.90
17994;DHT22;9122;48.406;9.984;2023-09-12T04:30:35;19.70;99.90
17994;DHT22;9122;48.406;9.984;2023-09-12T04:33:20;19.70;99.90
17994;DHT22;9122;48.406;9.984;2023-09-12T04:36:05;19.60;99.90
17994;DHT22;9122;48.406;9.984;2023-09-12T04:38:49;19.70;99.90
17994;DHT22;9122;48.406;9.984;2023-09-12T04:41:33;19.50;99.90
17994;DHT22;9122;48.406;9.984;2023-09-12T04:44:18;19.30;98.90
17994;DHT22;9122;48.406;9.984;2023-09-12T04:47:02;19.50;99.90
17994;DHT22;9122;48.406;9.984;2023-09-12T04:49:47;19.40;99.90
17994;DHT22;9122;48.406;9.984;2023-09-12T04:52:31;19.40;99.90
17994;DHT22;9122;48.406;9.984;2023-09-12T04:55:16;19.50;99.90
17994;DHT22;9122;48.406;9.984;2023-09-12T04:58:00;19.20;99.90
17994;DHT22;9122;48.406;9.984;2023-09-12T05:00:45;19.50;94.60
17994;DHT22;9122;48.406;9.984;2023-09-12T05:03:30;19.50;99.90
17994;DHT22;9122;48.406;9.984;2023-09-12T05:09:00;19.30;99.90
17994;DHT22;9122;48.406;9.984;2023-09-12T05:11:44;19.40;99.90
17994;DHT22;9122;48.406;9.984;2023-09-12T05:14:28;19.40;99.90
17994;DHT22;9122;48.406;9.984;2023-09-12T05:19:56;19.40;99.90
17994;DHT22;9122;48.406;9.984;2023-09-12T05:22:40;19.30;99.90
17994;DHT22;9122;48.406;9.984;2023-09-12T05:25:25;19.50;99.90
17994;DHT22;9122;48.406;9.984;2023-09-12T05:28:11;19.40;99.90
17994;DHT22;9122;48.406;9.984;2023-09-12T05:31:18;19.30;92.00
17994;DHT22;9122;48.406;9.984;2023-09-12T05:39:32;19.40;99.90
17994;DHT22;9122;48.406;9.984;2023-09-12T05:42:16;19.50;99.90
17994;DHT22;9122;48.406;9.984;2023-09-12T05:45:06;19.50;98.40
17994;DHT22;9122;48.406;9.984;2023-09-12T05:50:36;19.60;99.90
17994;DHT22;9122;48.406;9.984;2023-09-12T05:53:21;19.60;99.90
17994;DHT22;9122;48.406;9.984;2023-09-12T05:56:05;19.60;99.90
17994;DHT22;9122;48.406;9.984;2023-09-12T06:01:34;19.70;99.90
17994;DHT22;9122;48.406;9.984;2023-09-12T06:04:18;19.80;99.90
17994;DHT22;9122;48.406;9.984;2023-09-12T06:07:03;19.80;99.90
17994;DHT22;9122;48.406;9.984;2023-09-12T06:09:48;19.80;99.90
17994;DHT22;9122;48.406;9.984;2023-09-12T06:12:32;19.50;99.90
17994;DHT22;9122;48.406;9.984;2023-09-12T06:15:17;19.90;99.40
17994;DHT22;9122;48.406;9.984;2023-09-12T06:18:01;20.20;99.90
17994;DHT22;9122;48.406;9.984;2023-09-12T06:20:46;20.30;99.90
17994;DHT22;9122;48.406;9.984;2023-09-12T06:26:23;20.30;92.60
17994;DHT22;9122;48.406;9.984;2023-09-12T06:29:12;20.40;99.90
17994;DHT22;9122;48.406;9.984;2023-09-12T06:31:57;20.30;97.10
17994;DHT22;9122;48.406;9.984;2023-09-12T06:37:27;20.70;99.90
17994;DHT22;9122;48.406;9.984;2023-09-12T06:42:56;20.90;96.80
17994;DHT22;9122;48.406;9.984;2023-09-12T06:45:41;20.70;99.90
17994;DHT22;9122;48.406;9.984;2023-09-12T06:48:25;21.00;99.90
17994;DHT22;9122;48.406;9.984;2023-09-12T06:51:10;21.00;99.90
17994;DHT22;9122;48.406;9.984;2023-09-12T06:53:54;21.20;99.90
17994;DHT22;9122;48.406;9.984;2023-09-12T06:56:39;21.10;99.90
17994;DHT22;9122;48.406;9.984;2023-09-12T06:59:25;21.30;96.20
17994;DHT22;9122;48.406;9.984;2023-09-12T07:02:09;21.30;99.90
17994;DHT22;9122;48.406;9.984;2023-09-12T07:04:55;21.50;99.90
17994;DHT22;9122;48.406;9.984;2023-09-12T07:07:40;21.60;99.90
17994;DHT22;9122;48.406;9.984;2023-09-12T07:10:25;21.60;92.50
17994;DHT22;9122;48.406;9.984;2023-09-12T07:13:10;21.60;99.90
17994;DHT22;9122;48.406;9.984;2023-09-12T07:15:54;21.70;91.30
17994;DHT22;9122;48.406;9.984;2023-09-12T07:18:40;21.80;99.90
17994;DHT22;9122;48.406;9.984;2023-09-12T07:21:25;21.90;90.90
17994;DHT22;9122;48.406;9.984;2023-09-12T07:26:54;22.30;99.90
17994;DHT22;9122;48.406;9.984;2023-09-12T07:29:39;22.40;99.90
17994;DHT22;9122;48.406;9.984;2023-09-12T07:32:23;22.50;99.90
17994;DHT22;9122;48.406;9.984;2023-09-12T07:35:08;22.50;99.90
17994;DHT22;9122;48.406;9.984;2023-09-12T07:37:53;22.60;99.90
17994;DHT22;9122;48.406;9.984;2023-09-12T07:40:37;22.60;94.90
17994;DHT22;9122;48.406;9.984;2023-09-12T07:43:22;22.80;89.10
17994;DHT22;9122;48.406;9.984;2023-09-12T07:46:07;22.90;99.90
17994;DHT22;9122;48.406;9.984;2023-09-12T07:48:57;22.60;99.90
17994;DHT22;9122;48.406;9.984;2023-09-12T07:51:43;23.00;99.90
17994;DHT22;9122;48.406;9.984;2023-09-12T07:54:27;23.10;99.30
17994;DHT22;9122;48.406;9.984;2023-09-12T07:57:14;23.10;88.10
17994;DHT22;9122;48.406;9.984;2023-09-12T07:59:59;23.40;87.50
17994;DHT22;9122;48.406;9.984;2023-09-12T08:02:43;23.70;99.90
17994;DHT22;9122;48.406;9.984;2023-09-12T08:05:28;23.80;88.00
17994;DHT22;9122;48.406;9.984;2023-09-12T08:08:12;23.90;86.80
17994;DHT22;9122;48.406;9.984;2023-09-12T08:10:57;24.20;86.70
17994;DHT22;9122;48.406;9.984;2023-09-12T08:13:41;24.50;99.90
17994;DHT22;9122;48.406;9.984;2023-09-12T08:16:25;24.50;99.90
17994;DHT22;9122;48.406;9.984;2023-09-12T08:19:09;24.90;99.90
17994;DHT22;9122;48.406;9.984;2023-09-12T08:21:54;24.90;89.30
17994;DHT22;9122;48.406;9.984;2023-09-12T08:24:38;24.70;99.90
17994;DHT22;9122;48.406;9.984;2023-09-12T08:27:26;25.00;99.90
17994;DHT22;9122;48.406;9.984;2023-09-12T08:30:12;24.70;99.90
17994;DHT22;9122;48.406;9.984;2023-09-12T08:32:56;25.20;89.70
17994;DHT22;9122;48.406;9.984;2023-09-12T08:35:41;25.10;86.00
17994;DHT22;9122;48.406;9.984;2023-09-12T08:38:25;25.00;85.60
17994;DHT22;9122;48.406;9.984;2023-09-12T08:41:11;25.10;99.90
17994;DHT22;9122;48.406;9.984;2023-09-12T08:43:56;25.30;99.90
17994;DHT22;9122;48.406;9.984;2023-09-12T08:46:42;25.30;86.00
17994;DHT22;9122;48.406;9.984;2023-09-12T08:49:27;25.50;99.90
17994;DHT22;9122;48.406;9.984;2023-09-12T08:52:12;25.80;87.50
17994;DHT22;9122;48.406;9.984;2023-09-12T08:54:59;26.00;99.90
17994;DHT22;9122;48.406;9.984;2023-09-12T08:57:45;26.30;99.90
17994;DHT22;9122;48.406;9.984;2023-09-12T09:00:34;26.40;99.90
17994;DHT22;9122;48.406;9.984;2023-09-12T09:03:20;26.20;86.40
17994;DHT22;9122;48.406;9.984;2023-09-12T09:06:06;26.30;99.90
17994;DHT22;9122;48.406;9.984;2023-09-12T09:11:37;26.30;99.90
17994;DHT22;9122;48.406;9.984;2023-09-12T09:14:21;26.10;99.90
17994;DHT22;9122;48.406;9.984;2023-09-12T09:17:05;26.60;99.90
17994;DHT22;9122;48.406;9.984;2023-09-12T09:19:49;26.40;79.00
17994;DHT22;9122;48.406;9.984;2023-09-12T09:25:19;26.60;79.30
17994;DHT22;9122;48.406;9.984;2023-09-12T09:28:04;26.70;85.30
17994;DHT22;9122;48.406;9.984;2023-09-12T09:30:50;26.60;99.90
17994;DHT22;9122;48.406;9.984;2023-09-12T09:33:35;27.00;99.90
17994;DHT22;9122;48.406;9.984;2023-09-12T09:36:20;26.90;84.70
17994;DHT22;9122;48.406;9.984;2023-09-12T09:39:05;27.00;99.90
17994;DHT22;9122;48.406;9.984;2023-09-12T09:41:51;27.10;81.90
17994;DHT22;9122;48.406;9.984;2023-09-12T09:47:21;27.30;99.90
17994;DHT22;9122;48.406;9.984;2023-09-12T09:50:05;27.40;81.40
17994;DHT22;9122;48.406;9.984;2023-09-12T09:52:56;27.40;81.60
17994;DHT22;9122;48.406;9.984;2023-09-12T09:58:29;27.70;76.40
17994;DHT22;9122;48.406;9.984;2023-09-12T10:01:17;28.00;99.90
17994;DHT22;9122;48.406;9.984;2023-09-12T10:04:03;28.10;81.00
17994;DHT22;9122;48.406;9.984;2023-09-12T10:06:48;28.00;99.90
17994;DHT22;9122;48.406;9.984;2023-09-12T10:09:34;28.00;80.60
17994;DHT22;9122;48.406;9.984;2023-09-12T10:15:05;28.00;98.40
17994;DHT22;9122;48.406;9.984;2023-09-12T10:17:56;28.30;80.60
17994;DHT22;9122;48.406;9.984;2023-09-12T10:20:48;28.10;80.20
17994;DHT22;9122;48.406;9.984;2023-09-12T10:23:41;28.50;80.00
17994;DHT22;9122;48.406;9.984;2023-09-12T10:26:28;28.40;72.60
17994;DHT22;9122;48.406;9.984;2023-09-12T10:32:00;28.70;76.60
17994;DHT22;9122;48.406;9.984;2023-09-12T10:34:44;28.70;99.00
17994;DHT22;9122;48.406;9.984;2023-09-12T10:37:31;29.10;99.00
17994;DHT22;9122;48.406;9.984;2023-09-12T10:40:19;28.90;77.60
17994;DHT22;9122;48.406;9.984;2023-09-12T10:45:50;29.00;98.60
17994;DHT22;9122;48.406;9.984;2023-09-12T10:48:36;29.20;76.40
17994;DHT22;9122;48.406;9.984;2023-09-12T10:57:09;29.20;98.30
17994;DHT22;9122;48.406;9.984;2023-09-12T11:05:38;29.50;97.00
17994;DHT22;9122;48.406;9.984;2023-09-12T11:08:40;29.50;73.10
17994;DHT22;9122;48.406;9.984;2023-09-12T11:14:09;29.60;66.60
17994;DHT22;9122;48.406;9.984;2023-09-12T11:20:02;30.00;95.20
17994;DHT22;9122;48.406;9.984;2023-09-12T11:22:53;29.70;68.30
17994;DHT22;9122;48.406;9.984;2023-09-12T11:26:06;29.80;69.00
17994;DHT22;9122;48.406;9.984;2023-09-12T11:28:51;29.80;68.80
17994;DHT22;9122;48.406;9.984;2023-09-12T11:31:36;29.90;66.00
17994;DHT22;9122;48.406;9.984;2023-09-12T11:34:21;29.90;68.00
17994;DHT22;9122;48.406;9.984;2023-09-12T11:37:07;30.00;94.20
17994;DHT22;9122;48.406;9.984;2023-09-12T11:39:52;30.00;65.20
17994;DHT22;9122;48.406;9.984;2023-09-12T11:42:39;30.00;67.30
17994;DHT22;9122;48.406;9.984;2023-09-12T11:45:24;30.20;67.70
17994;DHT22;9122;48.406;9.984;2023-09-12T11:50:55;30.20;63.50
17994;DHT22;9122;48.406;9.984;2023-09-12T11:53:40;30.30;65.80
17994;DHT22;9122;48.406;9.984;2023-09-12T11:56:24;30.30;64.10
17994;DHT22;9122;48.406;9.984;2023-09-12T11:59:09;30.30;64.30
17994;DHT22;9122;48.406;9.984;2023-09-12T12:01:54;30.20;66.70
17994;DHT22;9122;48.406;9.984;2023-09-12T12:07:24;30.30;63.10
17994;DHT22;9122;48.406;9.984;2023-09-12T12:10:10;30.30;65.50
17994;DHT22;9122;48.406;9.984;2023-09-12T12:21:08;30.30;63.10
17994;DHT22;9122;48.406;9.984;2023-09-12T12:24:02;30.30;66.30
17994;DHT22;9122;48.406;9.984;2023-09-12T12:26:47;30.30;63.30
17994;DHT22;9122;48.406;9.984;2023-09-12T12:29:31;30.40;64.00
17994;DHT22;9122;48.406;9.984;2023-09-12T12:32:17;30.40;63.40
17994;DHT22;9122;48.406;9.984;2023-09-12T12:35:01;30.40;62.50
17994;DHT22;9122;48.406;9.984;2023-09-12T12:37:50;30.50;60.50
17994;DHT22;9122;48.406;9.984;2023-09-12T12:40:39;30.40;61.10
17994;DHT22;9122;48.406;9.984;2023-09-12T12:43:26;30.40;61.20
17994;DHT22;9122;48.406;9.984;2023-09-12T12:46:12;30.40;62.20
17994;DHT22;9122;48.406;9.984;2023-09-12T12:51:42;30.50;58.50
17994;DHT22;9122;48.406;9.984;2023-09-12T12:54:31;30.50;58.90
17994;DHT22;9122;48.406;9.984;2023-09-12T12:57:19;30.50;57.10
17994;DHT22;9122;48.406;9.984;2023-09-12T13:00:18;30.50;57.70
17994;DHT22;9122;48.406;9.984;2023-09-12T13:03:03;30.40;55.20
17994;DHT22;9122;48.406;9.984;2023-09-12T13:08:32;30.40;89.20
17994;DHT22;9122;48.406;9.984;2023-09-12T13:11:18;30.40;57.80
17994;DHT22;9122;48.406;9.984;2023-09-12T13:14:04;30.40;57.80
17994;DHT22;9122;48.406;9.984;2023-09-12T13:16:54;30.40;58.10
17994;DHT22;9122;48.406;9.984;2023-09-12T13:19:38;30.50;85.10
17994;DHT22;9122;48.406;9.984;2023-09-12T13:22:22;30.50;55.90
17994;DHT22;9122;48.406;9.984;2023-09-12T13:25:06;28.90;55.50
17994;DHT22;9122;48.406;9.984;2023-09-12T13:27:51;30.50;90.40
17994;DHT22;9122;48.406;9.984;2023-09-12T13:36:06;30.60;54.70
17994;DHT22;9122;48.406;9.984;2023-09-12T13:38:50;30.40;56.40
17994;DHT22;9122;48.406;9.984;2023-09-12T13:41:35;30.40;59.00
17994;DHT22;9122;48.406;9.984;2023-09-12T13:44:20;30.40;58.00
17994;DHT22;9122;48.406;9.984;2023-09-12T13:47:04;30.40;53.60
17994;DHT22;9122;48.406;9.984;2023-09-12T13:52:36;30.50;54.50
17994;DHT22;9122;48.406;9.984;2023-09-12T13:55:20;30.40;88.80
17994;DHT22;9122;48.406;9.984;2023-09-12T13:58:05;30.50;56.10
17994;DHT22;9122;48.406;9.984;2023-09-12T14:00:50;30.50;89.60
17994;DHT22;9122;48.406;9.984;2023-09-12T14:03:35;30.40;58.00
17994;DHT22;9122;48.406;9.984;2023-09-12T14:06:20;30.40;58.10
17994;DHT22;9122;48.406;9.984;2023-09-12T14:09:05;30.40;58.30
17994;DHT22;9122;48.406;9.984;2023-09-12T14:11:49;30.60;90.80
17994;DHT22;9122;48.406;9.984;2023-09-12T14:14:33;30.30;59.10
17994;DHT22;9122;48.406;9.984;2023-09-12T14:20:03;30.40;57.20
17994;DHT22;9122;48.406;9.984;2023-09-12T14:22:47;30.30;57.50
17994;DHT22;9122;48.406;9.984;2023-09-12T14:25:31;30.40;57.50
17994;DHT22;9122;48.406;9.984;2023-09-12T14:31:01;30.30;57.90
17994;DHT22;9122;48.406;9.984;2023-09-12T14:36:32;30.20;56.20
17994;DHT22;9122;48.406;9.984;2023-09-12T14:39:17;30.20;57.60
17994;DHT22;9122;48.406;9.984;2023-09-12T14:42:01;30.20;57.50
17994;DHT22;9122;48.406;9.984;2023-09-12T14:44:49;30.30;89.50
17994;DHT22;9122;48.406;9.984;2023-09-12T14:47:33;30.20;57.00
17994;DHT22;9122;48.406;9.984;2023-09-12T14:50:18;30.20;56.80
17994;DHT22;9122;48.406;9.984;2023-09-12T14:53:02;30.20;55.90
17994;DHT22;9122;48.406;9.984;2023-09-12T14:58:32;30.10;54.00
17994;DHT22;9122;48.406;9.984;2023-09-12T15:04:01;30.10;54.60
17994;DHT22;9122;48.406;9.984;2023-09-12T15:06:45;30.70;58.10
17994;DHT22;9122;48.406;9.984;2023-09-12T15:09:30;30.10;56.80
17994;DHT22;9122;48.406;9.984;2023-09-12T15:12:14;30.60;57.20
17994;DHT22;9122;48.406;9.984;2023-09-12T15:14:58;29.90;56.40
17994;DHT22;9122;48.406;9.984;2023-09-12T15:17:43;30.00;56.60
17994;DHT22;9122;48.406;9.984;2023-09-12T15:20:27;29.90;56.60
17994;DHT22;9122;48.406;9.984;2023-09-12T15:23:19;29.90;56.60
17994;DHT22;9122;48.406;9.984;2023-09-12T15:26:06;29.90;57.40
17994;DHT22;9122;48.406;9.984;2023-09-12T15:28:53;29.90;56.40
17994;DHT22;9122;48.406;9.984;2023-09-12T15:31:37;29.80;57.30
17994;DHT22;9122;48.406;9.984;2023-09-12T15:34:22;29.80;58.10
17994;DHT22;9122;48.406;9.984;2023-09-12T15:37:11;29.80;57.50
17994;DHT22;9122;48.406;9.984;2023-09-12T15:39:57;29.80;58.20
17994;DHT22;9122;48.406;9.984;2023-09-12T15:42:41;29.70;57.80
17994;DHT22;9122;48.406;9.984;2023-09-12T15:45:25;29.70;58.30
17994;DHT22;9122;48.406;9.984;2023-09-12T15:48:09;29.70;59.00
17994;DHT22;9122;48.406;9.984;2023-09-12T15:50:59;29.60;59.30
17994;DHT22;9122;48.406;9.984;2023-09-12T15:53:43;29.70;59.60
17994;DHT22;9122;48.406;9.984;2023-09-12T15:56:28;29.60;59.50
17994;DHT22;9122;48.406;9.984;2023-09-12T15:59:12;29.60;59.90
17994;DHT22;9122;48.406;9.984;2023-09-12T16:01:56;29.60;60.20
17994;DHT22;9122;48.406;9.984;2023-09-12T16:04:41;29.70;85.60
17994;DHT22;9122;48.406;9.984;2023-09-12T16:07:25;29.50;59.70
17994;DHT22;9122;48.406;9.984;2023-09-12T16:10:10;29.50;60.00
17994;DHT22;9122;48.406;9.984;2023-09-12T16:12:56;29.50;59.60
17994;DHT22;9122;48.406;9.984;2023-09-12T16:15:40;29.50;57.60
17994;DHT22;9122;48.406;9.984;2023-09-12T16:18:24;29.50;57.80
17994;DHT22;9122;48.406;9.984;2023-09-12T16:21:09;29.50;58.20
17994;DHT22;9122;48.406;9.984;2023-09-12T16:23:58;29.50;58.50
17994;DHT22;9122;48.406;9.984;2023-09-12T16:26:42;29.40;58.20
17994;DHT22;9122;48.406;9.984;2023-09-12T16:29:27;29.40;57.60
17994;DHT22;9122;48.406;9.984;2023-09-12T16:32:11;29.40;58.50
17994;DHT22;9122;48.406;9.984;2023-09-12T16:34:56;29.40;59.60
17994;DHT22;9122;48.406;9.984;2023-09-12T16:37:40;29.30;60.50
17994;DHT22;9122;48.406;9.984;2023-09-12T16:40:25;29.30;60.40
17994;DHT22;9122;48.406;9.984;2023-09-12T16:43:10;29.30;59.90
17994;DHT22;9122;48.406;9.984;2023-09-12T16:45:56;29.20;60.60
17994;DHT22;9122;48.406;9.984;2023-09-12T16:48:41;29.20;62.30
17994;DHT22;9122;48.406;9.984;2023-09-12T16:51:29;29.20;65.00
17994;DHT22;9122;48.406;9.984;2023-09-12T16:56:58;29.00;67.50
17994;DHT22;9122;48.406;9.984;2023-09-12T16:59:42;28.80;71.00
17994;DHT22;9122;48.406;9.984;2023-09-12T17:02:27;28.60;71.70
17994;DHT22;9122;48.406;9.984;2023-09-12T17:05:11;28.10;93.10
17994;DHT22;9122;48.406;9.984;2023-09-12T17:10:40;28.00;73.20
17994;DHT22;9122;48.406;9.984;2023-09-12T17:16:11;27.70;74.80
17994;DHT22;9122;48.406;9.984;2023-09-12T17:18:55;27.80;76.00
17994;DHT22;9122;48.406;9.984;2023-09-12T17:21:39;27.60;76.60
17994;DHT22;9122;48.406;9.984;2023-09-12T17:24:23;27.50;76.40
17994;DHT22;9122;48.406;9.984;2023-09-12T17:27:08;27.40;74.80
17994;DHT22;9122;48.406;9.984;2023-09-12T17:32:37;27.20;75.20
17994;DHT22;9122;48.406;9.984;2023-09-12T17:35:22;27.10;76.50
17994;DHT22;9122;48.406;9.984;2023-09-12T17:38:06;26.80;94.50
17994;DHT22;9122;48.406;9.984;2023-09-12T17:40:51;27.00;75.50
17994;DHT22;9122;48.406;9.984;2023-09-12T17:43:36;26.70;93.90
17994;DHT22;9122;48.406;9.984;2023-09-12T17:49:05;26.90;73.80
17994;DHT22;9122;48.406;9.984;2023-09-12T17:51:49;26.70;93.50
17994;DHT22;9122;48.406;9.984;2023-09-12T17:54:33;26.80;73.50
17994;DHT22;9122;48.406;9.984;2023-09-12T17:57:17;26.70;74.20
17994;DHT22;9122;48.406;9.984;2023-09-12T18:00:02;26.70;73.20
17994;DHT22;9122;48.406;9.984;2023-09-12T18:05:31;26.50;73.10
17994;DHT22;9122;48.406;9.984;2023-09-12T18:08:21;26.50;74.00
17994;DHT22;9122;48.406;9.984;2023-09-12T18:11:08;26.40;72.80
17994;DHT22;9122;48.406;9.984;2023-09-12T18:17:03;26.30;74.30
17994;DHT22;9122;48.406;9.984;2023-09-12T18:19:51;26.30;75.30
17994;DHT22;9122;48.406;9.984;2023-09-12T18:22:39;26.20;75.00
17994;DHT22;9122;48.406;9.984;2023-09-12T18:25:23;26.20;75.70
17994;DHT22;9122;48.406;9.984;2023-09-12T18:28:13;26.20;75.60
17994;DHT22;9122;48.406;9.984;2023-09-12T18:33:52;26.00;74.40
17994;DHT22;9122;48.406;9.984;2023-09-12T18:36:37;26.00;75.60
17994;DHT22;9122;48.406;9.984;2023-09-12T18:39:21;26.00;75.00
17994;DHT22;9122;48.406;9.984;2023-09-12T18:42:06;26.00;75.00
17994;DHT22;9122;48.406;9.984;2023-09-12T18:44:51;25.90;94.80
17994;DHT22;9122;48.406;9.984;2023-09-12T18:47:35;25.90;77.50
17994;DHT22;9122;48.406;9.984;2023-09-12T18:50:20;25.90;94.60
17994;DHT22;9122;48.406;9.984;2023-09-12T18:53:05;26.10;94.70
17994;DHT22;9122;48.406;9.984;2023-09-12T18:55:52;25.80;75.20
17994;DHT22;9122;48.406;9.984;2023-09-12T18:58:38;25.80;75.80
17994;DHT22;9122;48.406;9.984;2023-09-12T19:01:24;25.70;75.90
17994;DHT22;9122;48.406;9.984;2023-09-12T19:04:37;25.70;77.00
17994;DHT22;9122;48.406;9.984;2023-09-12T19:07:21;25.70;76.60
17994;DHT22;9122;48.406;9.984;2023-09-12T19:10:06;25.90;96.20
17994;DHT22;9122;48.406;9.984;2023-09-12T19:12:51;25.60;77.70
17994;DHT22;9122;48.406;9.984;2023-09-12T19:15:39;25.60;78.60
17994;DHT22;9122;48.406;9.984;2023-09-12T19:18:23;25.60;78.40
17994;DHT22;9122;48.406;9.984;2023-09-12T19:21:09;25.60;78.40
17994;DHT22;9122;48.406;9.984;2023-09-12T19:23:54;25.50;78.70
17994;DHT22;9122;48.406;9.984;2023-09-12T19:26:39;25.50;95.50
17994;DHT22;9122;48.406;9.984;2023-09-12T19:29:23;25.40;76.70
17994;DHT22;9122;48.406;9.984;2023-09-12T19:32:07;25.20;96.50
17994;DHT22;9122;48.406;9.984;2023-09-12T19:34:52;25.40;79.60
17994;DHT22;9122;48.406;9.984;2023-09-12T19:37:39;25.30;78.00
17994;DHT22;9122;48.406;9.984;2023-09-12T19:40:32;25.30;77.50
17994;DHT22;9122;48.406;9.984;2023-09-12T19:43:17;23.80;76.00
17994;DHT22;9122;48.406;9.984;2023-09-12T19:46:05;25.20;96.20
17994;DHT22;9122;48.406;9.984;2023-09-12T19:48:50;25.10;76.80
17994;DHT22;9122;48.406;9.984;2023-09-12T19:51:34;25.10;77.40
17994;DHT22;9122;48.406;9.984;2023-09-12T19:54:18;25.00;78.20
17994;DHT22;9122;48.406;9.984;2023-09-12T19:57:05;25.00;76.60
17994;DHT22;9122;48.406;9.984;2023-09-12T19:59:50;25.00;96.90
17994;DHT22;9122;48.406;9.984;2023-09-12T20:02:34;24.80;97.10
17994;DHT22;9122;48.406;9.984;2023-09-12T20:05:22;24.90;77.50
17994;DHT22;9122;48.406;9.984;2023-09-12T20:08:07;25.00;78.20